sensor_id;sensor_type;location;lat;lon;timestamp;noise_LAeq;noise_LA_min;noise_LA_max;noise_LA01;noise_LA95
52872;Laerm;40124;52.198;9.902;2023-05-14T00:00:16;59.53;39.21;77.42;;
52872;Laerm;40124;52.198;9.902;2023-05-14T00:02:41;41.29;37.12;50.78;;
52872;Laerm;40124;52.198;9.902;2023-05-14T00:05:06;54.64;39.08;74.75;;
52872;Laerm;40124;52.198;9.902;2023-05-14T00:07:32;58.50;38.67;79.16;;
52872;Laerm;40124;52.198;9.902;2023-05-14T00:09:57;48.65;38.37;66.98;;
52872;Laerm;40124;52.198;9.902;2023-05-14T00:12:22;60.59;38.52;76.79;;
52872;Laerm;40124;52.198;9.902;2023-05-14T00:14:47;41.14;38.81;43.19;;
52872;Laerm;40124;52.198;9.902;2023-05-14T00:17:13;63.79;39.58;80.93;;
52872;Laerm;40124;52.198;9.902;2023-05-14T00:19:38;61.95;39.21;77.86;;
52872;Laerm;40124;52.198;9.902;2023-05-14T00:22:06;61.63;36.98;79.94;;
52872;Laerm;40124;52.198;9.902;2023-05-14T00:24:31;60.08;39.81;80.67;;
52872;Laerm;40124;52.198;9.902;2023-05-14T00:26:56;55.79;39.46;75.82;;
52872;Laerm;40124;52.198;9.902;2023-05-14T00:29:21;60.70;39.08;78.13;;
52872;Laerm;40124;52.198;9.902;2023-05-14T00:31:46;41.73;38.52;49.12;;
52872;Laerm;40124;52.198;9.902;2023-05-14T00:34:11;57.86;37.88;77.34;;
52872;Laerm;40124;52.198;9.902;2023-05-14T00:36:36;41.00;37.12;43.24;;
52872;Laerm;40124;52.198;9.902;2023-05-14T00:39:01;58.48;38.21;77.39;;
52872;Laerm;40124;52.198;9.902;2023-05-14T00:41:27;41.48;37.52;45.66;;
52872;Laerm;40124;52.198;9.902;2023-05-14T00:43:52;60.82;37.12;80.97;;
52872;Laerm;40124;52.198;9.902;2023-05-14T00:46:18;59.78;38.95;79.96;;
52872;Laerm;40124;52.198;9.902;2023-05-14T00:48:43;61.89;38.21;80.90;;
52872;Laerm;40124;52.198;9.902;2023-05-14T00:51:09;60.62;37.88;81.62;;
52872;Laerm;40124;52.198;9.902;2023-05-14T00:53:34;42.03;38.52;48.84;;
52872;Laerm;40124;52.198;9.902;2023-05-14T00:55:59;41.05;37.53;45.63;;
52872;Laerm;40124;52.198;9.902;2023-05-14T00:58:25;60.18;38.37;81.43;;
52872;Laerm;40124;52.198;9.902;2023-05-14T01:00:50;41.30;38.05;47.91;;
52872;Laerm;40124;52.198;9.902;2023-05-14T01:03:15;60.26;37.88;80.32;;
52872;Laerm;40124;52.198;9.902;2023-05-14T01:11:13;57.31;37.12;77.41;;
52872;Laerm;40124;52.198;9.902;2023-05-14T01:13:54;45.41;36.34;66.65;;
52872;Laerm;40124;52.198;9.902;2023-05-14T01:16:22;60.36;36.69;79.98;;
52872;Laerm;40124;52.198;9.902;2023-05-14T01:18:50;60.96;37.52;82.47;;
52872;Laerm;40124;52.198;9.902;2023-05-14T01:21:23;40.68;37.52;51.41;;
52872;Laerm;40124;52.198;9.902;2023-05-14T01:23:49;55.25;35.66;75.87;;
52872;Laerm;40124;52.198;9.902;2023-05-14T01:26:14;43.09;36.56;59.47;;
52872;Laerm;40124;52.198;9.902;2023-05-14T01:28:39;60.52;36.20;78.21;;
52872;Laerm;40124;52.198;9.902;2023-05-14T01:31:11;59.98;36.91;81.01;;
52872;Laerm;40124;52.198;9.902;2023-05-14T01:33:39;41.35;37.70;43.33;;
52872;Laerm;40124;52.198;9.902;2023-05-14T01:36:06;41.43;38.05;44.90;;
52872;Laerm;40124;52.198;9.902;2023-05-14T01:38:31;54.97;38.52;75.20;;
52872;Laerm;40124;52.198;9.902;2023-05-14T01:40:58;42.13;37.70;45.63;;
52872;Laerm;40124;52.198;9.902;2023-05-14T01:43:23;43.46;38.95;51.13;;
52872;Laerm;40124;52.198;9.902;2023-05-14T01:45:49;42.12;38.05;47.00;;
52872;Laerm;40124;52.198;9.902;2023-05-14T01:48:14;56.98;38.67;77.21;;
52872;Laerm;40124;52.198;9.902;2023-05-14T01:50:40;42.10;38.21;44.90;;
52872;Laerm;40124;52.198;9.902;2023-05-14T01:53:05;41.79;37.88;47.59;;
52872;Laerm;40124;52.198;9.902;2023-05-14T01:55:30;60.44;38.67;79.70;;
52872;Laerm;40124;52.198;9.902;2023-05-14T01:57:55;40.20;36.20;45.54;;
52872;Laerm;40124;52.198;9.902;2023-05-14T02:00:22;40.33;36.20;44.69;;
52872;Laerm;40124;52.198;9.902;2023-05-14T02:02:47;41.03;36.69;43.24;;
52872;Laerm;40124;52.198;9.902;2023-05-14T02:05:12;41.09;37.32;46.50;;
52872;Laerm;40124;52.198;9.902;2023-05-14T02:07:37;41.30;37.52;43.49;;
52872;Laerm;40124;52.198;9.902;2023-05-14T02:10:03;41.65;38.52;44.23;;
52872;Laerm;40124;52.198;9.902;2023-05-14T02:12:28;60.62;39.34;79.36;;
52872;Laerm;40124;52.198;9.902;2023-05-14T02:14:53;44.16;39.58;51.88;;
52872;Laerm;40124;52.198;9.902;2023-05-14T02:17:19;71.84;39.21;92.66;;
52872;Laerm;40124;52.198;9.902;2023-05-14T02:19:44;55.10;39.34;73.34;;
52872;Laerm;40124;52.198;9.902;2023-05-14T02:22:10;62.29;40.23;81.15;;
52872;Laerm;40124;52.198;9.902;2023-05-14T02:24:35;57.36;40.79;76.54;;
52872;Laerm;40124;52.198;9.902;2023-05-14T02:27:00;60.22;40.43;80.65;;
52872;Laerm;40124;52.198;9.902;2023-05-14T02:29:26;61.48;39.81;79.77;;
52872;Laerm;40124;52.198;9.902;2023-05-14T02:31:51;60.97;38.81;82.77;;
52872;Laerm;40124;52.198;9.902;2023-05-14T02:34:16;46.09;40.03;56.06;;
52872;Laerm;40124;52.198;9.902;2023-05-14T02:36:41;56.63;40.23;77.07;;
52872;Laerm;40124;52.198;9.902;2023-05-14T02:39:06;45.69;39.70;57.21;;
52872;Laerm;40124;52.198;9.902;2023-05-14T02:41:32;58.08;40.53;77.48;;
52872;Laerm;40124;52.198;9.902;2023-05-14T02:43:57;46.75;40.53;57.07;;
52872;Laerm;40124;52.198;9.902;2023-05-14T02:46:22;65.57;42.09;86.30;;
52872;Laerm;40124;52.198;9.902;2023-05-14T02:48:47;56.27;40.71;76.15;;
52872;Laerm;40124;52.198;9.902;2023-05-14T02:51:12;48.25;40.89;57.74;;
52872;Laerm;40124;52.198;9.902;2023-05-14T02:53:37;61.08;40.89;80.67;;
52872;Laerm;40124;52.198;9.902;2023-05-14T02:56:02;55.67;40.03;74.67;;
52872;Laerm;40124;52.198;9.902;2023-05-14T02:58:28;47.94;40.89;60.52;;
52872;Laerm;40124;52.198;9.902;2023-05-14T03:00:53;58.14;39.70;76.86;;
52872;Laerm;40124;52.198;9.902;2023-05-14T03:03:18;60.00;40.80;78.97;;
52872;Laerm;40124;52.198;9.902;2023-05-14T03:05:43;62.12;41.33;79.85;;
52872;Laerm;40124;52.198;9.902;2023-05-14T03:08:09;47.60;41.22;59.43;;
52872;Laerm;40124;52.198;9.902;2023-05-14T03:10:34;60.28;41.06;79.48;;
52872;Laerm;40124;52.198;9.902;2023-05-14T03:12:59;51.76;41.30;64.97;;
52872;Laerm;40124;52.198;9.902;2023-05-14T03:15:24;56.35;41.46;76.08;;
52872;Laerm;40124;52.198;9.902;2023-05-14T03:17:49;44.93;41.06;55.45;;
52872;Laerm;40124;52.198;9.902;2023-05-14T03:20:15;56.46;40.03;74.53;;
52872;Laerm;40124;52.198;9.902;2023-05-14T03:22:40;56.03;40.80;76.15;;
52872;Laerm;40124;52.198;9.902;2023-05-14T03:25:05;44.72;40.62;55.36;;
52872;Laerm;40124;52.198;9.902;2023-05-14T03:27:30;62.53;41.22;79.51;;
52872;Laerm;40124;52.198;9.902;2023-05-14T03:29:55;59.66;40.13;79.36;;
52872;Laerm;40124;52.198;9.902;2023-05-14T03:32:20;56.25;39.21;75.74;;
52872;Laerm;40124;52.198;9.902;2023-05-14T03:34:46;58.80;39.92;77.41;;
52872;Laerm;40124;52.198;9.902;2023-05-14T03:37:11;60.94;39.21;81.75;;
52872;Laerm;40124;52.198;9.902;2023-05-14T03:39:36;62.06;39.21;77.24;;
52872;Laerm;40124;52.198;9.902;2023-05-14T03:42:01;62.18;39.34;81.42;;
52872;Laerm;40124;52.198;9.902;2023-05-14T03:44:26;63.00;39.23;81.51;;
52872;Laerm;40124;52.198;9.902;2023-05-14T03:46:51;57.59;39.81;76.90;;
52872;Laerm;40124;52.198;9.902;2023-05-14T03:49:17;61.84;40.13;79.14;;
52872;Laerm;40124;52.198;9.902;2023-05-14T03:51:42;60.29;40.33;77.54;;
52872;Laerm;40124;52.198;9.902;2023-05-14T03:54:08;45.59;39.81;59.72;;
52872;Laerm;40124;52.198;9.902;2023-05-14T03:56:33;60.28;39.58;78.49;;
52872;Laerm;40124;52.198;9.902;2023-05-14T03:58:59;45.38;39.34;59.36;;
52872;Laerm;40124;52.198;9.902;2023-05-14T04:01:24;60.65;39.92;77.83;;
52872;Laerm;40124;52.198;9.902;2023-05-14T04:03:49;49.22;40.80;62.01;;
52872;Laerm;40124;52.198;9.902;2023-05-14T04:06:14;62.70;39.46;79.23;;
52872;Laerm;40124;52.198;9.902;2023-05-14T04:08:40;43.65;39.70;60.91;;
52872;Laerm;40124;52.198;9.902;2023-05-14T04:11:05;61.40;39.11;83.12;;
52872;Laerm;40124;52.198;9.902;2023-05-14T04:13:30;62.80;40.53;77.60;;
52872;Laerm;40124;52.198;9.902;2023-05-14T04:15:55;43.35;39.58;54.45;;
52872;Laerm;40124;52.198;9.902;2023-05-14T04:18:20;56.48;39.08;76.34;;
52872;Laerm;40124;52.198;9.902;2023-05-14T04:20:45;45.85;39.81;57.92;;
52872;Laerm;40124;52.198;9.902;2023-05-14T04:23:10;61.46;41.14;81.04;;
52872;Laerm;40124;52.198;9.902;2023-05-14T04:25:36;45.03;40.33;56.82;;
52872;Laerm;40124;52.198;9.902;2023-05-14T04:28:01;45.55;39.81;67.59;;
52872;Laerm;40124;52.198;9.902;2023-05-14T04:30:26;58.37;40.03;78.33;;
52872;Laerm;40124;52.198;9.902;2023-05-14T04:32:51;57.55;40.13;77.81;;
52872;Laerm;40124;52.198;9.902;2023-05-14T04:35:16;57.15;40.13;77.63;;
52872;Laerm;40124;52.198;9.902;2023-05-14T04:37:41;59.75;40.23;77.03;;
52872;Laerm;40124;52.198;9.902;2023-05-14T04:40:07;44.21;39.58;57.87;;
52872;Laerm;40124;52.198;9.902;2023-05-14T04:42:32;43.85;38.95;58.34;;
52872;Laerm;40124;52.198;9.902;2023-05-14T04:44:57;63.90;39.81;82.18;;
52872;Laerm;40124;52.198;9.902;2023-05-14T04:47:23;61.91;39.34;80.41;;
52872;Laerm;40124;52.198;9.902;2023-05-14T04:49:48;58.58;39.70;75.14;;
52872;Laerm;40124;52.198;9.902;2023-05-14T04:52:13;62.55;40.43;78.68;;
52872;Laerm;40124;52.198;9.902;2023-05-14T04:54:38;63.72;40.33;85.44;;
52872;Laerm;40124;52.198;9.902;2023-05-14T04:57:03;43.08;40.80;48.85;;
52872;Laerm;40124;52.198;9.902;2023-05-14T04:59:29;56.76;40.89;75.23;;
52872;Laerm;40124;52.198;9.902;2023-05-14T05:01:54;65.84;40.89;83.04;;
52872;Laerm;40124;52.198;9.902;2023-05-14T05:04:19;64.53;41.82;80.24;;
52872;Laerm;40124;52.198;9.902;2023-05-14T05:06:44;63.28;40.62;81.82;;
52872;Laerm;40124;52.198;9.902;2023-05-14T05:09:10;59.76;39.92;77.01;;
52872;Laerm;40124;52.198;9.902;2023-05-14T05:11:35;62.68;39.34;81.89;;
52872;Laerm;40124;52.198;9.902;2023-05-14T05:14:01;60.12;39.92;78.79;;
52872;Laerm;40124;52.198;9.902;2023-05-14T05:16:26;64.86;39.70;81.67;;
52872;Laerm;40124;52.198;9.902;2023-05-14T05:18:52;62.56;40.03;82.25;;
52872;Laerm;40124;52.198;9.902;2023-05-14T05:21:17;65.87;41.53;80.42;;
52872;Laerm;40124;52.198;9.902;2023-05-14T05:23:42;63.48;41.68;79.71;;
52872;Laerm;40124;52.198;9.902;2023-05-14T05:26:07;61.00;40.71;78.23;;
52872;Laerm;40124;52.198;9.902;2023-05-14T05:28:32;73.51;39.58;92.56;;
52872;Laerm;40124;52.198;9.902;2023-05-14T05:30:57;61.37;39.70;82.04;;
52872;Laerm;40124;52.198;9.902;2023-05-14T05:33:22;56.03;39.21;76.22;;
52872;Laerm;40124;52.198;9.902;2023-05-14T05:35:48;63.62;41.22;79.56;;
52872;Laerm;40124;52.198;9.902;2023-05-14T05:38:14;62.57;40.13;80.81;;
52872;Laerm;40124;52.198;9.902;2023-05-14T05:40:39;59.89;39.70;76.67;;
52872;Laerm;40124;52.198;9.902;2023-05-14T05:43:04;65.44;40.80;82.53;;
52872;Laerm;40124;52.198;9.902;2023-05-14T05:45:30;59.15;40.71;78.41;;
52872;Laerm;40124;52.198;9.902;2023-05-14T05:47:55;64.15;40.89;85.58;;
52872;Laerm;40124;52.198;9.902;2023-05-14T05:50:20;61.43;41.30;81.86;;
52872;Laerm;40124;52.198;9.902;2023-05-14T05:52:45;62.23;41.22;76.59;;
52872;Laerm;40124;52.198;9.902;2023-05-14T05:55:10;61.64;41.06;77.50;;
52872;Laerm;40124;52.198;9.902;2023-05-14T05:57:35;64.69;41.14;79.57;;
52872;Laerm;40124;52.198;9.902;2023-05-14T06:00:01;68.48;43.09;82.83;;
52872;Laerm;40124;52.198;9.902;2023-05-14T06:02:36;66.60;40.33;78.55;;
52872;Laerm;40124;52.198;9.902;2023-05-14T06:05:01;66.65;40.53;81.90;;
52872;Laerm;40124;52.198;9.902;2023-05-14T06:07:26;66.58;40.03;80.33;;
52872;Laerm;40124;52.198;9.902;2023-05-14T06:09:52;62.36;40.23;76.00;;
52872;Laerm;40124;52.198;9.902;2023-05-14T06:12:17;65.21;40.43;79.14;;
52872;Laerm;40124;52.198;9.902;2023-05-14T06:14:42;67.11;44.15;80.14;;
52872;Laerm;40124;52.198;9.902;2023-05-14T06:17:07;65.13;40.53;82.59;;
52872;Laerm;40124;52.198;9.902;2023-05-14T06:19:32;66.14;40.71;80.78;;
52872;Laerm;40124;52.198;9.902;2023-05-14T06:21:58;68.17;41.30;79.92;;
52872;Laerm;40124;52.198;9.902;2023-05-14T06:24:23;65.79;40.43;81.66;;
52872;Laerm;40124;52.198;9.902;2023-05-14T06:26:48;68.43;43.49;80.36;;
52872;Laerm;40124;52.198;9.902;2023-05-14T06:29:13;62.96;39.08;79.99;;
52872;Laerm;40124;52.198;9.902;2023-05-14T06:31:38;65.34;40.33;80.15;;
52872;Laerm;40124;52.198;9.902;2023-05-14T06:34:03;64.48;40.71;80.22;;
52872;Laerm;40124;52.198;9.902;2023-05-14T06:36:28;66.66;41.53;79.41;;
52872;Laerm;40124;52.198;9.902;2023-05-14T06:38:54;64.44;42.09;82.26;;
52872;Laerm;40124;52.198;9.902;2023-05-14T06:41:19;66.39;42.29;80.77;;
52872;Laerm;40124;52.198;9.902;2023-05-14T06:43:45;66.03;42.47;80.35;;
52872;Laerm;40124;52.198;9.902;2023-05-14T06:46:10;69.63;45.23;82.22;;
52872;Laerm;40124;52.198;9.902;2023-05-14T06:48:35;70.06;45.27;82.08;;
52872;Laerm;40124;52.198;9.902;2023-05-14T06:51:00;67.69;44.07;81.99;;
52872;Laerm;40124;52.198;9.902;2023-05-14T06:53:27;68.30;44.80;80.65;;
52872;Laerm;40124;52.198;9.902;2023-05-14T06:55:52;66.13;44.23;79.64;;
52872;Laerm;40124;52.198;9.902;2023-05-14T06:58:17;67.90;45.14;82.73;;
52872;Laerm;40124;52.198;9.902;2023-05-14T07:00:42;69.64;45.80;81.61;;
52872;Laerm;40124;52.198;9.902;2023-05-14T07:03:07;67.91;43.39;80.71;;
52872;Laerm;40124;52.198;9.902;2023-05-14T07:05:33;65.65;42.47;82.69;;
52872;Laerm;40124;52.198;9.902;2023-05-14T07:07:58;64.54;41.38;80.40;;
52872;Laerm;40124;52.198;9.902;2023-05-14T07:10:23;68.70;43.24;80.53;;
52872;Laerm;40124;52.198;9.902;2023-05-14T07:12:48;67.67;43.24;79.94;;
52872;Laerm;40124;52.198;9.902;2023-05-14T07:15:14;68.48;43.09;81.61;;
52872;Laerm;40124;52.198;9.902;2023-05-14T07:17:39;67.98;44.31;81.16;;
52872;Laerm;40124;52.198;9.902;2023-05-14T07:20:05;68.18;42.22;80.05;;
52872;Laerm;40124;52.198;9.902;2023-05-14T07:22:30;71.83;46.55;85.94;;
52872;Laerm;40124;52.198;9.902;2023-05-14T07:24:55;68.36;41.68;81.51;;
52872;Laerm;40124;52.198;9.902;2023-05-14T07:27:20;69.74;44.07;80.07;;
52872;Laerm;40124;52.198;9.902;2023-05-14T07:29:45;63.60;40.80;80.06;;
52872;Laerm;40124;52.198;9.902;2023-05-14T07:32:11;67.45;44.07;79.10;;
52872;Laerm;40124;52.198;9.902;2023-05-14T07:34:36;66.12;42.41;81.56;;
52872;Laerm;40124;52.198;9.902;2023-05-14T07:37:01;70.99;50.75;80.75;;
52872;Laerm;40124;52.198;9.902;2023-05-14T07:39:26;70.15;46.30;81.62;;
52872;Laerm;40124;52.198;9.902;2023-05-14T07:41:52;70.79;43.44;81.94;;
52872;Laerm;40124;52.198;9.902;2023-05-14T07:44:18;67.89;43.63;79.87;;
52872;Laerm;40124;52.198;9.902;2023-05-14T07:46:44;66.65;41.68;80.70;;
52872;Laerm;40124;52.198;9.902;2023-05-14T07:49:09;69.41;43.44;82.21;;
52872;Laerm;40124;52.198;9.902;2023-05-14T07:51:34;67.00;42.47;79.92;;
52872;Laerm;40124;52.198;9.902;2023-05-14T07:53:59;69.15;44.94;80.30;;
52872;Laerm;40124;52.198;9.902;2023-05-14T07:56:24;68.45;41.53;80.89;;
52872;Laerm;40124;52.198;9.902;2023-05-14T07:58:50;68.66;44.35;80.73;;
52872;Laerm;40124;52.198;9.902;2023-05-14T08:01:15;67.39;43.72;80.38;;
52872;Laerm;40124;52.198;9.902;2023-05-14T08:03:40;70.20;44.35;81.14;;
52872;Laerm;40124;52.198;9.902;2023-05-14T08:06:05;68.57;43.19;80.92;;
52872;Laerm;40124;52.198;9.902;2023-05-14T08:08:31;68.06;39.92;78.84;;
52872;Laerm;40124;52.198;9.902;2023-05-14T08:10:56;67.09;40.53;79.61;;
52872;Laerm;40124;52.198;9.902;2023-05-14T08:13:21;67.29;41.75;79.64;;
52872;Laerm;40124;52.198;9.902;2023-05-14T08:15:46;67.58;44.80;80.50;;
52872;Laerm;40124;52.198;9.902;2023-05-14T08:18:11;69.16;45.01;82.36;;
52872;Laerm;40124;52.198;9.902;2023-05-14T08:20:36;69.42;44.51;80.77;;
52872;Laerm;40124;52.198;9.902;2023-05-14T08:23:02;69.52;42.09;83.49;;
52872;Laerm;40124;52.198;9.902;2023-05-14T08:25:27;69.06;41.96;79.09;;
52872;Laerm;40124;52.198;9.902;2023-05-14T08:27:52;69.93;44.97;81.23;;
52872;Laerm;40124;52.198;9.902;2023-05-14T08:30:18;66.64;41.75;78.19;;
52872;Laerm;40124;52.198;9.902;2023-05-14T08:32:43;68.85;47.00;80.14;;
52872;Laerm;40124;52.198;9.902;2023-05-14T08:35:08;68.83;38.32;82.56;;
52872;Laerm;40124;52.198;9.902;2023-05-14T08:37:33;68.29;44.51;80.30;;
52872;Laerm;40124;52.198;9.902;2023-05-14T08:39:58;66.97;41.14;81.16;;
52872;Laerm;40124;52.198;9.902;2023-05-14T08:42:24;68.20;43.29;81.48;;
52872;Laerm;40124;52.198;9.902;2023-05-14T08:44:55;69.31;45.91;82.25;;
52872;Laerm;40124;52.198;9.902;2023-05-14T08:47:22;69.71;43.63;83.57;;
52872;Laerm;40124;52.198;9.902;2023-05-14T08:49:49;70.14;45.14;82.38;;
52872;Laerm;40124;52.198;9.902;2023-05-14T08:52:16;68.75;43.29;80.24;;
52872;Laerm;40124;52.198;9.902;2023-05-14T08:54:42;68.35;42.82;79.12;;
52872;Laerm;40124;52.198;9.902;2023-05-14T08:57:08;68.54;42.93;80.25;;
52872;Laerm;40124;52.198;9.902;2023-05-14T08:59:34;78.03;46.28;97.23;;
52872;Laerm;40124;52.198;9.902;2023-05-14T09:02:00;68.05;42.09;81.11;;
52872;Laerm;40124;52.198;9.902;2023-05-14T09:04:25;68.95;43.63;80.37;;
52872;Laerm;40124;52.198;9.902;2023-05-14T09:06:51;67.72;43.72;81.16;;
52872;Laerm;40124;52.198;9.902;2023-05-14T09:09:20;69.00;42.47;81.95;;
52872;Laerm;40124;52.198;9.902;2023-05-14T09:11:49;68.18;43.72;80.87;;
52872;Laerm;40124;52.198;9.902;2023-05-14T09:14:14;69.98;45.80;86.29;;
52872;Laerm;40124;52.198;9.902;2023-05-14T09:16:40;69.23;44.11;80.02;;
52872;Laerm;40124;52.198;9.902;2023-05-14T09:19:07;68.33;44.52;82.79;;
52872;Laerm;40124;52.198;9.902;2023-05-14T09:21:32;68.60;43.04;80.19;;
52872;Laerm;40124;52.198;9.902;2023-05-14T09:23:58;67.61;43.58;80.15;;
52872;Laerm;40124;52.198;9.902;2023-05-14T09:26:23;68.93;43.49;80.97;;
52872;Laerm;40124;52.198;9.902;2023-05-14T09:28:52;68.38;44.11;80.05;;
52872;Laerm;40124;52.198;9.902;2023-05-14T09:31:17;68.10;42.09;82.38;;
52872;Laerm;40124;52.198;9.902;2023-05-14T09:33:42;66.97;44.43;80.74;;
52872;Laerm;40124;52.198;9.902;2023-05-14T09:36:13;68.04;41.96;79.21;;
52872;Laerm;40124;52.198;9.902;2023-05-14T09:38:38;68.80;42.35;82.26;;
52872;Laerm;40124;52.198;9.902;2023-05-14T09:41:03;68.42;41.82;82.09;;
52872;Laerm;40124;52.198;9.902;2023-05-14T09:43:29;63.82;39.92;78.18;;
52872;Laerm;40124;52.198;9.902;2023-05-14T09:45:54;63.71;40.03;76.33;;
52872;Laerm;40124;52.198;9.902;2023-05-14T09:48:19;68.98;44.73;81.19;;
52872;Laerm;40124;52.198;9.902;2023-05-14T09:50:46;66.81;41.82;79.79;;
52872;Laerm;40124;52.198;9.902;2023-05-14T09:53:11;66.72;42.98;78.19;;
52872;Laerm;40124;52.198;9.902;2023-05-14T09:55:37;67.71;44.31;78.75;;
52872;Laerm;40124;52.198;9.902;2023-05-14T09:58:03;70.75;50.49;85.39;;
52872;Laerm;40124;52.198;9.902;2023-05-14T10:00:30;67.68;42.47;81.20;;
52872;Laerm;40124;52.198;9.902;2023-05-14T10:02:55;67.01;41.53;79.76;;
52872;Laerm;40124;52.198;9.902;2023-05-14T10:05:21;69.83;45.86;83.70;;
52872;Laerm;40124;52.198;9.902;2023-05-14T10:07:47;69.62;44.73;82.34;;
52872;Laerm;40124;52.198;9.902;2023-05-14T10:10:18;69.92;45.07;84.84;;
52872;Laerm;40124;52.198;9.902;2023-05-14T10:12:45;68.92;43.54;92.64;;
52872;Laerm;40124;52.198;9.902;2023-05-14T10:15:17;67.47;43.58;79.73;;
52872;Laerm;40124;52.198;9.902;2023-05-14T10:17:51;67.17;44.07;80.40;;
52872;Laerm;40124;52.198;9.902;2023-05-14T10:20:19;67.19;40.62;81.57;;
52872;Laerm;40124;52.198;9.902;2023-05-14T10:22:44;68.81;42.41;80.29;;
52872;Laerm;40124;52.198;9.902;2023-05-14T10:25:10;68.82;46.62;80.62;;
52872;Laerm;40124;52.198;9.902;2023-05-14T10:27:35;68.71;45.14;79.75;;
52872;Laerm;40124;52.198;9.902;2023-05-14T10:30:01;67.80;45.72;79.37;;
52872;Laerm;40124;52.198;9.902;2023-05-14T10:32:29;67.57;43.19;80.19;;
52872;Laerm;40124;52.198;9.902;2023-05-14T10:34:56;67.32;42.47;79.03;;
52872;Laerm;40124;52.198;9.902;2023-05-14T10:37:24;70.09;42.53;81.80;;
52872;Laerm;40124;52.198;9.902;2023-05-14T10:39:53;69.06;43.85;83.02;;
52872;Laerm;40124;52.198;9.902;2023-05-14T10:42:22;70.88;44.47;81.09;;
52872;Laerm;40124;52.198;9.902;2023-05-14T10:47:13;71.38;42.98;84.98;;
52872;Laerm;40124;52.198;9.902;2023-05-14T10:49:38;69.00;42.41;86.62;;
52872;Laerm;40124;52.198;9.902;2023-05-14T10:52:06;70.37;42.95;82.36;;
52872;Laerm;40124;52.198;9.902;2023-05-14T10:54:33;68.21;42.16;80.64;;
52872;Laerm;40124;52.198;9.902;2023-05-14T10:56:59;67.50;43.58;80.33;;
52872;Laerm;40124;52.198;9.902;2023-05-14T10:59:26;69.68;43.68;81.99;;
52872;Laerm;40124;52.198;9.902;2023-05-14T11:01:51;65.95;43.09;80.04;;
52872;Laerm;40124;52.198;9.902;2023-05-14T11:04:17;68.40;43.68;78.85;;
52872;Laerm;40124;52.198;9.902;2023-05-14T11:06:43;66.66;40.62;80.02;;
52872;Laerm;40124;52.198;9.902;2023-05-14T11:09:08;69.07;41.48;87.10;;
52872;Laerm;40124;52.198;9.902;2023-05-14T11:11:34;72.17;50.71;89.56;;
52872;Laerm;40124;52.198;9.902;2023-05-14T11:13:59;67.90;42.65;80.09;;
52872;Laerm;40124;52.198;9.902;2023-05-14T11:16:26;69.49;44.51;80.94;;
52872;Laerm;40124;52.198;9.902;2023-05-14T11:19:01;69.17;50.44;81.80;;
52872;Laerm;40124;52.198;9.902;2023-05-14T11:21:27;69.51;44.03;85.20;;
52872;Laerm;40124;52.198;9.902;2023-05-14T11:23:53;71.02;43.24;86.39;;
52872;Laerm;40124;52.198;9.902;2023-05-14T11:26:18;68.32;43.24;81.93;;
52872;Laerm;40124;52.198;9.902;2023-05-14T11:28:43;69.67;46.13;82.46;;
52872;Laerm;40124;52.198;9.902;2023-05-14T11:31:09;69.44;41.30;79.20;;
52872;Laerm;40124;52.198;9.902;2023-05-14T11:33:34;69.46;42.47;80.09;;
52872;Laerm;40124;52.198;9.902;2023-05-14T11:35:59;69.06;46.69;80.68;;
52872;Laerm;40124;52.198;9.902;2023-05-14T11:38:25;70.64;43.58;86.41;;
52872;Laerm;40124;52.198;9.902;2023-05-14T11:40:51;66.57;44.03;80.47;;
52872;Laerm;40124;52.198;9.902;2023-05-14T11:43:17;69.11;46.78;80.83;;
52872;Laerm;40124;52.198;9.902;2023-05-14T11:45:42;68.48;44.15;80.78;;
52872;Laerm;40124;52.198;9.902;2023-05-14T11:48:10;69.87;44.87;89.79;;
52872;Laerm;40124;52.198;9.902;2023-05-14T11:50:36;71.51;45.23;87.26;;
52872;Laerm;40124;52.198;9.902;2023-05-14T11:53:01;67.72;42.65;82.79;;
52872;Laerm;40124;52.198;9.902;2023-05-14T11:55:26;73.32;45.45;93.04;;
52872;Laerm;40124;52.198;9.902;2023-05-14T11:57:51;67.76;43.04;82.65;;
52872;Laerm;40124;52.198;9.902;2023-05-14T12:00:16;68.36;45.42;81.30;;
52872;Laerm;40124;52.198;9.902;2023-05-14T12:02:46;66.21;43.49;79.51;;
52872;Laerm;40124;52.198;9.902;2023-05-14T12:05:11;69.05;46.25;80.73;;
52872;Laerm;40124;52.198;9.902;2023-05-14T12:07:37;70.81;42.88;90.95;;
52872;Laerm;40124;52.198;9.902;2023-05-14T12:10:03;69.57;45.39;85.52;;
52872;Laerm;40124;52.198;9.902;2023-05-14T12:12:32;67.86;42.09;82.96;;
52872;Laerm;40124;52.198;9.902;2023-05-14T12:14:58;70.53;41.61;85.53;;
52872;Laerm;40124;52.198;9.902;2023-05-14T12:17:23;68.29;41.96;79.55;;
52872;Laerm;40124;52.198;9.902;2023-05-14T12:19:50;69.43;43.09;83.27;;
52872;Laerm;40124;52.198;9.902;2023-05-14T12:22:16;69.34;43.14;80.53;;
52872;Laerm;40124;52.198;9.902;2023-05-14T12:24:42;70.54;46.57;80.29;;
52872;Laerm;40124;52.198;9.902;2023-05-14T12:27:08;69.53;43.63;81.32;;
52872;Laerm;40124;52.198;9.902;2023-05-14T12:29:34;70.99;45.69;80.51;;
52872;Laerm;40124;52.198;9.902;2023-05-14T12:31:59;71.72;41.53;82.80;;
52872;Laerm;40124;52.198;9.902;2023-05-14T12:34:25;68.99;44.47;81.06;;
52872;Laerm;40124;52.198;9.902;2023-05-14T12:36:50;70.91;45.63;86.23;;
52872;Laerm;40124;52.198;9.902;2023-05-14T12:39:16;68.30;44.47;79.44;;
52872;Laerm;40124;52.198;9.902;2023-05-14T12:41:41;67.41;43.63;81.46;;
52872;Laerm;40124;52.198;9.902;2023-05-14T12:44:06;70.27;45.57;82.09;;
52872;Laerm;40124;52.198;9.902;2023-05-14T12:46:31;68.55;45.51;79.72;;
52872;Laerm;40124;52.198;9.902;2023-05-14T12:48:57;70.52;48.10;80.23;;
52872;Laerm;40124;52.198;9.902;2023-05-14T12:51:22;72.83;45.99;87.36;;
52872;Laerm;40124;52.198;9.902;2023-05-14T12:53:47;71.99;44.90;90.74;;
52872;Laerm;40124;52.198;9.902;2023-05-14T12:56:13;72.33;49.78;86.08;;
52872;Laerm;40124;52.198;9.902;2023-05-14T12:58:38;70.71;47.79;83.47;;
52872;Laerm;40124;52.198;9.902;2023-05-14T13:01:04;69.18;47.55;79.52;;
52872;Laerm;40124;52.198;9.902;2023-05-14T13:03:29;72.38;43.99;87.09;;
52872;Laerm;40124;52.198;9.902;2023-05-14T13:05:54;70.73;45.77;80.10;;
52872;Laerm;40124;52.198;9.902;2023-05-14T13:08:20;70.38;44.47;81.40;;
52872;Laerm;40124;52.198;9.902;2023-05-14T13:10:45;67.66;40.71;80.83;;
52872;Laerm;40124;52.198;9.902;2023-05-14T13:13:11;69.64;42.16;80.92;;
52872;Laerm;40124;52.198;9.902;2023-05-14T13:15:36;69.60;43.58;82.24;;
52872;Laerm;40124;52.198;9.902;2023-05-14T13:18:01;69.23;43.44;82.22;;
52872;Laerm;40124;52.198;9.902;2023-05-14T13:20:27;69.29;46.25;81.67;;
52872;Laerm;40124;52.198;9.902;2023-05-14T13:22:53;68.94;41.38;82.45;;
52872;Laerm;40124;52.198;9.902;2023-05-14T13:25:18;71.00;42.53;85.21;;
52872;Laerm;40124;52.198;9.902;2023-05-14T13:27:43;69.91;41.68;87.16;;
52872;Laerm;40124;52.198;9.902;2023-05-14T13:30:08;68.61;42.29;81.65;;
52872;Laerm;40124;52.198;9.902;2023-05-14T13:32:34;68.95;44.87;80.26;;
52872;Laerm;40124;52.198;9.902;2023-05-14T13:34:59;68.27;40.13;82.54;;
52872;Laerm;40124;52.198;9.902;2023-05-14T13:37:24;67.91;43.04;79.91;;
52872;Laerm;40124;52.198;9.902;2023-05-14T13:39:50;66.16;42.88;78.57;;
52872;Laerm;40124;52.198;9.902;2023-05-14T13:42:15;69.24;42.82;80.63;;